Time;durP1;ratioP1;P1;durP2;ratioP2;P2;SDS_P1;SDS_P2;PMS_P1;PMS_P2;Temp;Humidity;BMP_temperature;BMP_pressure;BME280_temperature;BME280_humidity;BME280_pressure;Samples;Min_cycle;Max_cycle;Signal;HPM_P1;HPM_P2
2023/01/30 00:00:12;;;;;;;16.00;9.40;;;;;;;-0.18;86.86;99631.73;211271;1288;139466;-66
2023/01/30 00:05:37;;;;;;;15.40;9.90;;;;;;;-0.23;86.94;99622.14;211456;1278;140007;-68
2023/01/30 00:10:42;;;;;;;15.10;9.60;;;;;;;-0.25;86.93;99615.70;210558;1278;140738;-67
2023/01/30 00:15:47;;;;;;;14.60;8.70;;;;;;;-0.29;86.79;99596.92;211785;1294;139140;-67
2023/01/30 00:20:56;;;;;;;14.00;9.60;;;;;;;-0.30;86.42;99587.10;210789;1288;139487;-64
2023/01/30 00:26:02;;;;;;;16.10;8.40;;;;;;;-0.33;86.74;99570.86;210769;1288;140420;-67
2023/01/30 00:31:07;;;;;;;15.30;8.60;;;;;;;-0.36;86.72;99560.81;210751;1288;234486;-69
2023/01/30 00:36:12;;;;;;;18.20;9.80;;;;;;;-0.36;86.39;99540.98;210588;1293;139132;-68
2023/01/30 00:41:17;;;;;;;18.10;10.90;;;;;;;-0.39;86.37;99530.80;210648;1288;140410;-66
2023/01/30 00:51:53;;;;;;;15.20;9.30;;;;;;;-0.43;86.48;99501.23;210699;1293;139698;-64
2023/01/30 00:56:58;;;;;;;16.10;9.20;;;;;;;-0.48;86.08;99481.77;211094;1293;140456;-65
2023/01/30 01:02:02;;;;;;;20.50;10.90;;;;;;;-0.52;86.05;99474.08;210719;1287;139517;-67
2023/01/30 01:07:06;;;;;;;16.60;9.10;;;;;;;-0.57;86.13;99465.30;211869;1292;141302;-66
2023/01/30 01:12:09;;;;;;;15.70;10.10;;;;;;;-0.62;86.07;99453.74;210629;1294;140189;-67
2023/01/30 01:17:14;;;;;;;17.00;10.10;;;;;;;-0.61;86.06;99440.82;210576;1288;151742;-69
2023/01/30 01:22:21;;;;;;;20.70;10.40;;;;;;;-0.60;86.18;99435.63;210552;1286;140206;-67
2023/01/30 01:27:26;;;;;;;20.90;12.50;;;;;;;-0.59;86.13;99431.88;212014;1286;140080;-65
2023/01/30 01:32:31;;;;;;;23.50;10.50;;;;;;;-0.57;86.28;99427.56;213324;1293;139578;-66
2023/01/30 01:37:36;;;;;;;24.30;12.50;;;;;;;-0.56;86.34;99420.27;212249;1295;139923;-66
2023/01/30 01:42:40;;;;;;;20.90;11.40;;;;;;;-0.54;85.86;99411.68;213329;1293;140193;-66
2023/01/30 01:48:04;;;;;;;18.80;10.80;;;;;;;-0.55;85.58;99415.13;210845;1286;140295;-64
2023/01/30 01:53:10;;;;;;;23.20;15.00;;;;;;;-0.55;85.84;99414.23;211065;1279;141741;-67
2023/01/30 01:58:26;;;;;;;18.00;9.90;;;;;;;-0.54;85.85;99406.80;211733;1279;160489;-66
2023/01/30 02:03:34;;;;;;;24.70;12.70;;;;;;;-0.54;85.71;99387.23;210825;1294;140737;-68
2023/01/30 02:08:50;;;;;;;21.60;12.70;;;;;;;-0.53;85.84;99380.36;211747;1292;140496;-66
2023/01/30 02:13:57;;;;;;;20.10;11.80;;;;;;;-0.55;85.79;99368.65;210892;1286;140088;-64
2023/01/30 02:19:02;;;;;;;22.30;14.50;;;;;;;-0.57;85.40;99356.55;212152;1294;140091;-67
2023/01/30 02:24:31;;;;;;;19.70;11.60;;;;;;;-0.60;85.67;99339.09;210955;1286;140676;-68
2023/01/30 02:30:08;;;;;;;28.30;13.40;;;;;;;-0.60;85.63;99331.29;210701;1295;140814;-67
2023/01/30 02:35:53;;;;;;;17.30;9.40;;;;;;;-0.64;85.53;99318.79;210603;1285;139509;-69
2023/01/30 02:41:48;;;;;;;16.40;9.80;;;;;;;-0.66;85.32;99316.73;210524;1292;139729;-69
2023/01/30 02:47:10;;;;;;;17.60;11.30;;;;;;;-0.69;85.34;99293.86;210618;1278;139467;-69
2023/01/30 02:52:16;;;;;;;18.20;10.60;;;;;;;-0.68;85.38;99276.35;210505;1284;139552;-68
2023/01/30 02:57:23;;;;;;;19.00;9.00;;;;;;;-0.72;85.24;99262.92;211680;1295;141627;-70
2023/01/30 03:03:06;;;;;;;13.00;8.00;;;;;;;-0.73;85.15;99249.45;210610;1286;141604;-69
2023/01/30 03:08:30;;;;;;;18.90;11.60;;;;;;;-0.72;85.09;99234.56;210500;1278;141737;-70
2023/01/30 03:13:54;;;;;;;16.50;9.50;;;;;;;-0.72;85.25;99220.72;212820;1278;139768;-66
2023/01/30 03:19:04;;;;;;;15.20;9.30;;;;;;;-0.75;85.09;99215.64;212374;1285;139562;-68
2023/01/30 03:24:09;;;;;;;14.60;9.40;;;;;;;-0.74;85.10;99206.14;213598;1287;140146;-68
2023/01/30 03:29:14;;;;;;;21.30;12.10;;;;;;;-0.72;85.41;99194.38;213525;1285;139918;-68
2023/01/30 03:34:18;;;;;;;14.30;9.10;;;;;;;-0.71;85.16;99177.73;213645;1295;140380;-68
2023/01/30 03:39:24;;;;;;;17.30;10.30;;;;;;;-0.75;85.06;99161.92;212856;1282;139488;-67
2023/01/30 03:44:29;;;;;;;19.30;10.60;;;;;;;-0.79;85.27;99148.23;211458;1292;139778;-66
2023/01/30 03:49:34;;;;;;;18.30;11.30;;;;;;;-0.84;85.23;99124.89;211155;1286;140142;-66
2023/01/30 03:54:39;;;;;;;16.50;10.40;;;;;;;-0.87;85.55;99106.15;211743;1286;139560;-67
2023/01/30 03:59:43;;;;;;;15.50;8.50;;;;;;;-0.91;85.50;99098.93;210791;1278;140998;-67
2023/01/30 04:04:49;;;;;;;21.60;11.00;;;;;;;-0.98;85.65;99076.20;211033;1285;140246;-67
2023/01/30 04:09:53;;;;;;;17.40;10.50;;;;;;;-1.01;86.03;99082.43;211355;1292;140878;-68
2023/01/30 04:14:58;;;;;;;15.60;9.70;;;;;;;-1.04;85.69;99079.98;210966;1294;139212;-67
2023/01/30 04:20:05;;;;;;;11.90;7.30;;;;;;;-1.06;85.87;99078.33;211076;1294;140692;-68
2023/01/30 04:25:09;;;;;;;21.40;11.00;;;;;;;-1.08;85.49;99078.50;211123;1285;140306;-67
2023/01/30 04:30:14;;;;;;;13.20;9.30;;;;;;;-1.08;85.55;99079.35;211511;1278;140211;-67
2023/01/30 04:35:19;;;;;;;15.70;8.20;;;;;;;-1.08;85.69;99069.84;210707;1285;140226;-66
2023/01/30 04:40:24;;;;;;;18.80;10.50;;;;;;;-1.11;85.45;99046.26;211423;1292;140601;-68
2023/01/30 04:45:28;;;;;;;16.70;12.10;;;;;;;-1.09;85.59;99037.19;210661;1278;140239;-68
2023/01/30 04:50:34;;;;;;;19.00;10.60;;;;;;;-1.12;85.30;99012.36;211574;1291;140256;-65
2023/01/30 04:55:39;;;;;;;14.80;11.20;;;;;;;-1.16;85.01;98999.90;212359;1280;140036;-67
2023/01/30 05:00:45;;;;;;;10.50;6.30;;;;;;;-1.15;85.05;98986.63;210905;1288;140792;-68
2023/01/30 05:05:50;;;;;;;15.00;8.80;;;;;;;-1.13;85.08;98967.19;211362;1278;140327;-68
2023/01/30 05:10:57;;;;;;;20.20;11.60;;;;;;;-1.11;85.03;98954.23;210562;1294;140059;-68
2023/01/30 05:16:03;;;;;;;16.30;10.20;;;;;;;-1.10;84.92;98953.60;210603;1294;139918;-65
2023/01/30 05:21:12;;;;;;;13.90;10.10;;;;;;;-1.09;84.66;98928.88;213611;1285;140162;-66
2023/01/30 05:26:16;;;;;;;17.50;10.70;;;;;;;-1.07;84.56;98925.13;213543;1278;140517;-68
2023/01/30 05:31:20;;;;;;;16.50;10.20;;;;;;;-1.04;84.48;98927.25;213630;1293;139871;-68
2023/01/30 05:36:24;;;;;;;15.10;12.00;;;;;;;-1.01;84.47;98917.35;212146;1298;528225;-68
2023/01/30 05:41:28;;;;;;;19.20;10.90;;;;;;;-1.06;84.62;98914.31;211631;1292;141374;-69
2023/01/30 05:46:31;;;;;;;17.10;10.40;;;;;;;-1.08;84.39;98921.24;210716;1295;140304;-68
2023/01/30 05:51:36;;;;;;;15.20;10.40;;;;;;;-1.10;84.54;98923.19;210727;1288;140835;-67
2023/01/30 05:56:41;;;;;;;16.30;10.30;;;;;;;-1.11;84.47;98925.74;210427;1285;141450;-69
2023/01/30 06:01:45;;;;;;;16.10;11.10;;;;;;;-1.08;84.29;98916.90;211888;1295;141886;-69
2023/01/30 06:06:49;;;;;;;21.80;11.50;;;;;;;-1.07;84.27;98916.55;210685;1288;139941;-66
2023/01/30 06:11:54;;;;;;;19.20;10.30;;;;;;;-1.09;83.96;98898.90;210447;1288;139694;-71
2023/01/30 06:16:58;;;;;;;13.80;10.00;;;;;;;-1.09;83.85;98886.89;210817;1285;140275;-67
2023/01/30 06:22:03;;;;;;;16.90;11.70;;;;;;;-1.09;83.83;98882.80;210767;1288;139473;-68
2023/01/30 06:27:08;;;;;;;19.50;13.00;;;;;;;-1.09;83.88;98873.55;211083;1292;140483;-67
2023/01/30 06:32:13;;;;;;;18.50;11.60;;;;;;;-1.09;83.81;98869.43;211326;1286;140277;-65
2023/01/30 06:37:20;;;;;;;24.00;12.90;;;;;;;-1.08;83.62;98862.37;213479;1294;140480;-70
2023/01/30 06:42:24;;;;;;;19.50;12.40;;;;;;;-1.05;83.51;98849.77;212053;1285;140703;-66
2023/01/30 06:47:29;;;;;;;21.50;12.70;;;;;;;-1.02;83.43;98856.90;211401;1292;140970;-65
2023/01/30 06:52:34;;;;;;;20.30;11.90;;;;;;;-1.03;83.39;98850.04;210857;1292;139657;-66
2023/01/30 06:57:38;;;;;;;19.40;11.80;;;;;;;-1.03;83.26;98831.90;213142;1294;139683;-67
2023/01/30 07:02:43;;;;;;;16.60;10.30;;;;;;;-1.03;83.42;98819.51;212264;1292;140454;-65
2023/01/30 07:07:49;;;;;;;17.60;10.70;;;;;;;-1.05;83.26;98804.55;212280;1292;140336;-66
2023/01/30 07:12:53;;;;;;;19.60;11.80;;;;;;;-1.09;83.36;98795.69;213071;1293;140964;-67
2023/01/30 07:17:57;;;;;;;31.50;20.40;;;;;;;-1.15;83.12;98791.11;212979;1284;139967;-67
2023/01/30 07:23:00;;;;;;;22.00;12.40;;;;;;;-1.15;83.35;98786.96;213481;1288;140486;-69
2023/01/30 07:28:06;;;;;;;20.10;12.30;;;;;;;-1.11;83.72;98781.02;212627;1291;140837;-66
2023/01/30 07:33:11;;;;;;;23.70;17.50;;;;;;;-1.09;83.50;98771.02;213608;1292;140535;-68
2023/01/30 07:38:15;;;;;;;28.20;14.60;;;;;;;-1.05;83.66;98761.86;211268;1285;140371;-67
2023/01/30 07:43:19;;;;;;;22.20;14.10;;;;;;;-0.99;83.37;98750.26;212261;1284;140894;-66
2023/01/30 07:48:24;;;;;;;21.40;10.60;;;;;;;-0.97;83.73;98752.25;212365;1285;140067;-65
2023/01/30 07:53:29;;;;;;;22.50;16.60;;;;;;;-0.94;83.71;98744.80;210586;1286;139973;-67
2023/01/30 07:58:34;;;;;;;24.50;15.00;;;;;;;-0.90;83.79;98740.04;211187;1284;139450;-70
2023/01/30 08:03:39;;;;;;;22.80;13.90;;;;;;;-0.87;83.79;98737.70;210873;1300;140473;-69
2023/01/30 08:08:45;;;;;;;21.80;12.90;;;;;;;-0.89;84.01;98733.04;211365;1295;140392;-72
2023/01/30 08:13:49;;;;;;;19.00;12.60;;;;;;;-0.91;84.07;98731.73;210844;1284;140414;-69
2023/01/30 08:18:53;;;;;;;18.40;13.00;;;;;;;-0.93;84.10;98722.99;211692;1287;140840;-69
2023/01/30 08:23:58;;;;;;;20.00;12.50;;;;;;;-0.92;84.24;98709.60;210988;1285;139559;-64
2023/01/30 08:29:04;;;;;;;15.20;9.40;;;;;;;-0.85;84.47;98713.08;210996;1286;140035;-69
2023/01/30 08:34:09;;;;;;;17.80;12.00;;;;;;;-0.80;84.74;98707.38;211610;1292;139493;-68
2023/01/30 08:39:14;;;;;;;21.10;14.40;;;;;;;-0.77;84.71;98692.48;211525;1294;141606;-67
2023/01/30 08:44:19;;;;;;;18.20;11.90;;;;;;;-0.74;85.04;98676.84;211207;1287;140340;-68
2023/01/30 08:49:24;;;;;;;17.90;11.00;;;;;;;-0.65;85.09;98663.80;211118;1291;140684;-68
2023/01/30 08:54:28;;;;;;;22.10;12.00;;;;;;;-0.60;84.77;98663.70;211613;1295;140025;-70
2023/01/30 08:59:35;;;;;;;29.60;16.70;;;;;;;-0.50;85.35;98658.50;212310;1284;140052;-68
2023/01/30 09:04:39;;;;;;;18.70;12.60;;;;;;;-0.33;85.09;98659.75;211894;1286;140559;-67
2023/01/30 09:09:43;;;;;;;17.10;10.80;;;;;;;-0.24;85.48;98653.85;213432;1294;140121;-69
2023/01/30 09:14:47;;;;;;;19.00;11.80;;;;;;;-0.20;85.07;98653.39;213602;1288;141063;-69
2023/01/30 09:19:51;;;;;;;14.10;9.60;;;;;;;-0.16;85.31;98644.84;213574;1295;139991;-67
2023/01/30 09:24:57;;;;;;;13.50;10.20;;;;;;;-0.14;85.38;98635.14;213851;1282;140152;-68
2023/01/30 09:30:04;;;;;;;17.90;12.00;;;;;;;-0.11;85.09;98627.23;212251;1286;140190;-71
2023/01/30 09:35:08;;;;;;;16.60;10.60;;;;;;;-0.08;85.50;98627.89;210485;1286;139914;-69
2023/01/30 09:40:17;;;;;;;20.50;10.70;;;;;;;-0.06;85.49;98627.70;212106;1295;139565;-74
2023/01/30 09:45:42;;;;;;;14.90;11.30;;;;;;;-0.05;85.50;98621.02;210539;1291;140380;-71
2023/01/30 09:51:12;;;;;;;15.20;10.10;;;;;;;0.08;85.78;98614.13;212666;1290;139706;-74
2023/01/30 09:56:16;;;;;;;15.20;9.10;;;;;;;0.20;85.76;98601.05;211592;1295;139898;-69
2023/01/30 10:01:36;;;;;;;18.90;12.10;;;;;;;0.21;85.66;98596.54;210664;1296;139694;-77
2023/01/30 10:06:58;;;;;;;14.60;9.00;;;;;;;0.25;85.80;98570.35;212003;1295;140160;-71
2023/01/30 10:12:35;;;;;;;14.50;10.70;;;;;;;0.30;85.96;98578.63;212081;1294;139902;-67
2023/01/30 10:17:53;;;;;;;;;;;;;;;0.43;86.16;98569.01;210962;1286;139280;-64
2023/01/30 10:22:57;;;;;;;12.10;8.10;;;;;;;0.43;85.71;98565.38;211832;1293;125802;-65
2023/01/30 10:28:05;;;;;;;28.80;15.00;;;;;;;0.44;85.75;98560.83;211532;1285;140381;-69
2023/01/30 10:33:46;;;;;;;17.70;12.20;;;;;;;0.47;85.92;98549.02;212473;1291;139818;-69
2023/01/30 10:38:52;;;;;;;15.00;11.00;;;;;;;0.52;85.75;98542.83;211361;1296;140012;-65
2023/01/30 10:44:11;;;;;;;14.10;10.20;;;;;;;0.53;85.86;98540.60;212433;1291;140839;-71
2023/01/30 10:49:39;;;;;;;14.50;10.50;;;;;;;0.54;85.89;98535.89;212852;1278;140175;-64
2023/01/30 10:55:01;;;;;;;16.30;10.90;;;;;;;0.54;85.85;98525.31;212320;1286;140530;-69
2023/01/30 11:00:18;;;;;;;17.40;10.30;;;;;;;0.56;86.40;98524.92;211703;1284;139470;-69
2023/01/30 11:05:29;;;;;;;11.70;9.90;;;;;;;0.60;86.02;98522.06;213549;1295;139849;-67
2023/01/30 11:10:34;;;;;;;15.80;11.40;;;;;;;0.65;86.03;98520.79;213717;1295;141455;-67
2023/01/30 11:15:41;;;;;;;14.00;9.90;;;;;;;0.70;86.13;98512.29;213777;1301;140219;-66
2023/01/30 11:21:09;;;;;;;14.90;10.70;;;;;;;0.69;86.11;98510.79;213523;1286;141863;-67
2023/01/30 11:26:21;;;;;;;13.80;8.80;;;;;;;0.71;86.36;98501.23;211026;1286;142053;-68
2023/01/30 11:31:29;;;;;;;12.80;9.90;;;;;;;0.77;86.19;98496.64;212205;1298;140122;-69
2023/01/30 11:36:48;;;;;;;10.90;8.30;;;;;;;0.77;86.21;98486.52;210823;1286;141567;-69
2023/01/30 11:42:02;;;;;;;13.60;9.10;;;;;;;0.74;86.57;98486.31;211111;1294;141623;-70
2023/01/30 11:47:23;;;;;;;8.50;7.10;;;;;;;0.76;86.52;98478.20;210753;1292;139877;-66
2023/01/30 11:52:36;;;;;;;14.10;9.80;;;;;;;0.76;86.60;98464.48;211261;1284;139138;-67
2023/01/30 11:57:54;;;;;;;13.00;9.40;;;;;;;0.73;86.68;98447.90;211651;1285;139463;-66
2023/01/30 12:03:04;;;;;;;14.10;9.90;;;;;;;0.77;87.17;98433.36;211244;1284;140562;-67
2023/01/30 12:08:24;;;;;;;11.30;8.40;;;;;;;0.76;87.10;98429.62;211377;1284;139292;-66
2023/01/30 12:13:46;;;;;;;13.80;8.50;;;;;;;0.76;87.00;98424.52;211327;1292;139499;-66
2023/01/30 12:19:05;;;;;;;13.70;9.80;;;;;;;0.78;87.12;98421.14;211221;1292;139309;-67
2023/01/30 12:24:35;;;;;;;10.20;8.60;;;;;;;0.81;87.08;98422.98;211656;1294;140910;-66
2023/01/30 12:30:14;;;;;;;13.00;8.20;;;;;;;0.87;87.26;98425.36;212001;1291;140557;-66
2023/01/30 12:35:27;;;;;;;13.00;9.70;;;;;;;0.88;87.16;98418.87;211931;1285;139188;-65
2023/01/30 12:40:50;;;;;;;11.40;8.70;;;;;;;0.88;87.24;98419.75;212685;1298;142641;-66
2023/01/30 12:46:21;;;;;;;12.60;7.20;;;;;;;0.89;87.09;98421.50;212088;1286;139323;-66
2023/01/30 12:51:54;;;;;;;10.50;7.10;;;;;;;0.93;87.03;98422.55;211676;1298;139390;-66
2023/01/30 12:57:23;;;;;;;7.60;6.00;;;;;;;0.98;87.05;98422.27;211832;1286;140605;-66
2023/01/30 13:03:25;;;;;;;6.00;5.30;;;;;;;0.96;87.14;98420.20;212536;1291;139209;-67
2023/01/30 13:08:54;;;;;;;7.60;5.80;;;;;;;0.98;87.36;98416.52;212222;1298;142088;-69
2023/01/30 13:14:27;;;;;;;4.10;3.70;;;;;;;1.01;86.85;98419.07;213515;1296;140098;-69
2023/01/30 13:20:08;;;;;;;8.10;4.60;;;;;;;0.98;87.02;98407.73;211509;1295;140309;-68
2023/01/30 13:25:33;;;;;;;6.30;5.70;;;;;;;0.93;87.22;98410.58;210873;1291;139311;-68
2023/01/30 13:30:40;;;;;;;7.30;6.30;;;;;;;0.90;87.71;98416.48;211979;1301;138610;-66
2023/01/30 13:36:02;;;;;;;8.30;6.70;;;;;;;0.86;87.62;98419.36;212057;1293;139613;-66
2023/01/30 13:41:14;;;;;;;12.50;8.00;;;;;;;0.87;87.74;98421.81;211799;1286;140428;-64
2023/01/30 13:46:26;;;;;;;13.60;8.80;;;;;;;0.90;88.02;98419.52;212062;1281;140275;-65
2023/01/30 13:51:50;;;;;;;9.00;7.60;;;;;;;0.90;87.73;98424.64;211675;1286;140423;-65
2023/01/30 13:57:07;;;;;;;12.60;10.50;;;;;;;0.86;88.07;98424.56;211369;1295;139307;-65
2023/01/30 14:02:21;;;;;;;12.80;10.50;;;;;;;0.83;88.10;98423.59;211905;1288;139754;-66
2023/01/30 14:07:39;;;;;;;11.20;8.80;;;;;;;0.81;88.36;98422.23;211934;1279;248151;-66
2023/01/30 14:12:46;;;;;;;13.40;9.60;;;;;;;0.81;88.36;98421.09;211078;1295;139550;-64
2023/01/30 14:18:06;;;;;;;13.30;9.70;;;;;;;0.82;88.36;98416.41;211903;1286;139587;-67
2023/01/30 14:23:19;;;;;;;12.60;10.40;;;;;;;0.85;88.59;98414.16;212025;1300;141612;-67
2023/01/30 14:28:24;;;;;;;14.20;10.50;;;;;;;0.90;89.09;98416.16;211193;1295;140191;-67
2023/01/30 14:33:48;;;;;;;19.40;12.00;;;;;;;0.95;89.13;98419.73;211652;1286;140457;-65
2023/01/30 14:39:51;;;;;;;20.80;11.80;;;;;;;1.00;89.30;98422.90;210906;1294;140746;-68
2023/01/30 14:45:14;;;;;;;19.10;13.20;;;;;;;1.04;89.00;98413.81;212190;1301;140441;-67
2023/01/30 14:50:22;;;;;;;17.30;11.40;;;;;;;1.06;89.08;98408.23;210633;1295;140565;-68
2023/01/30 14:55:28;;;;;;;17.00;12.10;;;;;;;1.09;89.20;98405.48;211413;1284;140701;-68
2023/01/30 15:00:38;;;;;;;16.90;14.50;;;;;;;1.11;88.96;98407.08;212343;1294;140970;-68
2023/01/30 15:05:45;;;;;;;14.00;12.50;;;;;;;1.16;89.17;98404.27;211266;1289;139687;-66
2023/01/30 15:11:25;;;;;;;20.50;12.90;;;;;;;1.17;89.20;98397.56;212581;1295;139978;-66
2023/01/30 15:17:07;;;;;;;15.70;12.50;;;;;;;1.19;89.11;98404.06;213635;1286;139784;-68
2023/01/30 15:22:30;;;;;;;14.90;11.70;;;;;;;1.20;89.20;98413.71;213682;1294;140272;-69
2023/01/30 15:27:35;;;;;;;19.00;12.40;;;;;;;1.21;88.91;98419.30;211852;1284;140293;-69
2023/01/30 15:32:41;;;;;;;15.00;11.90;;;;;;;1.19;89.27;98424.53;211181;1286;139645;-69
2023/01/30 15:37:49;;;;;;;13.40;10.60;;;;;;;1.21;89.13;98446.70;210894;1286;141158;-65
2023/01/30 15:43:00;;;;;;;11.20;9.80;;;;;;;1.21;89.45;98455.42;212497;1295;140025;-65
2023/01/30 15:48:27;;;;;;;17.90;10.40;;;;;;;1.22;89.47;98464.36;211663;1288;140307;-66
2023/01/30 15:53:41;;;;;;;13.10;9.50;;;;;;;1.20;89.28;98455.86;211662;1286;139629;-66
2023/01/30 15:58:47;;;;;;;14.90;9.70;;;;;;;1.20;89.56;98462.97;210846;1286;141314;-69
2023/01/30 16:03:53;;;;;;;8.30;6.90;;;;;;;1.17;89.63;98453.21;211049;1288;141028;-69
2023/01/30 16:09:20;;;;;;;15.20;9.20;;;;;;;1.16;89.64;98449.77;211065;1284;139972;-66
2023/01/30 16:14:24;;;;;;;12.20;9.60;;;;;;;1.18;89.90;98455.46;212235;1291;139898;-67
2023/01/30 16:19:36;;;;;;;15.20;9.00;;;;;;;1.21;89.88;98447.90;211122;1288;139581;-66
2023/01/30 16:24:46;;;;;;;14.00;8.70;;;;;;;1.26;89.72;98442.17;211566;1285;140463;-66
2023/01/30 16:29:56;;;;;;;10.30;8.00;;;;;;;1.23;89.66;98429.38;210941;1285;139427;-65
2023/01/30 16:35:24;;;;;;;12.90;8.40;;;;;;;1.20;89.75;98433.30;211280;1287;140879;-65
2023/01/30 16:40:44;;;;;;;16.30;9.20;;;;;;;1.19;89.94;98435.08;212306;1292;142061;-67
2023/01/30 16:45:51;;;;;;;16.20;9.00;;;;;;;1.19;89.87;98437.13;211578;1288;140019;-66
2023/01/30 16:51:00;;;;;;;12.00;8.10;;;;;;;1.19;89.64;98434.05;212975;1293;139551;-65
2023/01/30 16:56:15;;;;;;;13.50;8.80;;;;;;;1.19;89.97;98447.30;211837;1294;139225;-65
2023/01/30 17:01:23;;;;;;;16.80;8.20;;;;;;;1.20;89.69;98457.88;212296;1295;139611;-66
2023/01/30 17:06:41;;;;;;;12.40;7.70;;;;;;;1.20;89.81;98457.84;212868;1286;139489;-66
2023/01/30 17:11:47;;;;;;;13.70;6.80;;;;;;;1.21;89.95;98461.48;213073;1294;139448;-67
2023/01/30 17:17:06;;;;;;;13.80;8.10;;;;;;;1.23;90.13;98473.27;213101;1294;139944;-68
2023/01/30 17:22:23;;;;;;;11.80;8.00;;;;;;;1.24;90.15;98482.64;213751;1291;140546;-70
2023/01/30 17:27:29;;;;;;;11.60;7.50;;;;;;;1.26;90.26;98477.31;212914;1291;139805;-69
2023/01/30 17:32:33;;;;;;;17.70;8.20;;;;;;;1.30;90.05;98479.61;210930;1291;305750;-69
2023/01/30 17:37:36;;;;;;;11.20;7.10;;;;;;;1.33;89.93;98481.06;212060;1286;140406;-69
2023/01/30 17:42:40;;;;;;;10.50;7.00;;;;;;;1.34;90.03;98483.52;211471;1290;139500;-65
2023/01/30 17:47:44;;;;;;;12.70;7.80;;;;;;;1.36;90.12;98488.25;211019;1278;139828;-66
2023/01/30 17:52:50;;;;;;;11.00;7.60;;;;;;;1.38;90.24;98493.45;211811;1292;139668;-67
2023/01/30 17:57:55;;;;;;;12.20;7.20;;;;;;;1.38;90.35;98488.44;211699;1286;139330;-69
2023/01/30 18:03:00;;;;;;;10.20;6.70;;;;;;;1.41;90.49;98492.40;210760;1285;140684;-66
2023/01/30 18:08:05;;;;;;;17.00;7.50;;;;;;;1.42;90.22;98487.42;211685;1294;139529;-66
2023/01/30 18:13:09;;;;;;;11.90;6.20;;;;;;;1.41;90.05;98484.60;212419;1288;139267;-65
2023/01/30 18:18:16;;;;;;;9.20;6.50;;;;;;;1.43;90.07;98491.50;211460;1287;140173;-68
2023/01/30 18:23:20;;;;;;;11.10;6.90;;;;;;;1.44;90.27;98493.04;210742;1285;141227;-69
2023/01/30 18:28:25;;;;;;;13.50;8.10;;;;;;;1.44;90.33;98488.31;211833;1278;140749;-68
2023/01/30 18:33:32;;;;;;;14.00;6.90;;;;;;;1.44;89.90;98483.95;210679;1292;139911;-69
2023/01/30 18:38:41;;;;;;;10.40;5.90;;;;;;;1.46;90.32;98480.39;210802;1285;140470;-66
2023/01/30 18:43:49;;;;;;;7.90;5.80;;;;;;;1.45;90.26;98483.50;210786;1286;140747;-67
2023/01/30 18:49:00;;;;;;;10.80;7.60;;;;;;;1.42;90.05;98482.38;211485;1292;140251;-68
2023/01/30 18:54:05;;;;;;;;;;;;;;;1.41;90.31;98490.41;211522;1298;140805;-69
2023/01/30 18:59:10;;;;;;;9.50;5.90;;;;;;;1.36;90.11;98483.27;211787;1285;126871;-68
2023/01/30 19:04:16;;;;;;;9.40;5.60;;;;;;;1.35;90.18;98486.43;213955;1286;139653;-69
2023/01/30 19:09:20;;;;;;;10.70;7.00;;;;;;;1.33;90.00;98484.73;213805;1291;139862;-69
2023/01/30 19:14:25;;;;;;;6.80;5.10;;;;;;;1.33;90.28;98487.20;212726;1292;141506;-69
2023/01/30 19:19:29;;;;;;;11.10;6.10;;;;;;;1.32;89.66;98494.99;211919;1288;139252;-70
2023/01/30 19:24:35;;;;;;;12.80;6.70;;;;;;;1.26;89.65;98504.82;210824;1287;139742;-68
2023/01/30 19:29:42;;;;;;;10.40;6.30;;;;;;;1.20;89.86;98519.91;211112;1287;139789;-68
2023/01/30 19:34:50;;;;;;;12.70;6.40;;;;;;;1.15;89.73;98532.48;210920;1292;139249;-69
2023/01/30 19:39:54;;;;;;;11.40;7.20;;;;;;;1.14;89.85;98538.61;210846;1286;140159;-68
2023/01/30 19:44:58;;;;;;;11.60;5.90;;;;;;;1.12;90.06;98545.23;210796;1292;140074;-69
2023/01/30 19:50:03;;;;;;;11.60;6.20;;;;;;;1.09;90.15;98548.73;210824;1284;140266;-67
2023/01/30 19:55:08;;;;;;;11.50;7.60;;;;;;;1.07;90.28;98556.66;211886;1287;139549;-67
2023/01/30 20:00:15;;;;;;;10.90;6.10;;;;;;;1.08;90.42;98565.17;211476;1290;140717;-67
2023/01/30 20:05:22;;;;;;;6.70;5.30;;;;;;;1.10;90.40;98570.75;211181;1292;139595;-67
2023/01/30 20:10:27;;;;;;;6.80;6.10;;;;;;;1.10;90.84;98569.98;211627;1292;139379;-68
2023/01/30 20:15:32;;;;;;;12.80;7.50;;;;;;;1.07;90.71;98564.85;210978;1295;140368;-66
2023/01/30 20:20:37;;;;;;;13.30;7.50;;;;;;;1.11;91.05;98570.71;211909;1295;139519;-67
2023/01/30 20:25:42;;;;;;;11.60;6.70;;;;;;;1.17;91.00;98581.66;211888;1294;141118;-69
2023/01/30 20:30:46;;;;;;;7.60;6.40;;;;;;;1.23;91.04;98598.15;212279;1294;139765;-67
2023/01/30 20:35:51;;;;;;;10.10;6.40;;;;;;;1.28;90.84;98618.54;212270;1294;140243;-67
2023/01/30 20:41:19;;;;;;;11.90;6.60;;;;;;;1.33;91.12;98625.30;213008;1294;139743;-66
2023/01/30 20:46:28;;;;;;;7.10;5.70;;;;;;;1.34;90.82;98622.67;212252;1294;139477;-66
2023/01/30 20:51:35;;;;;;;9.80;5.10;;;;;;;1.34;90.78;98622.06;213487;1287;139530;-66
2023/01/30 20:56:46;;;;;;;8.40;5.40;;;;;;;1.34;90.99;98641.41;213605;1295;139619;-67
2023/01/30 21:01:51;;;;;;;8.30;6.50;;;;;;;1.34;90.25;98638.62;213582;1295;139139;-70
2023/01/30 21:06:55;;;;;;;7.70;5.50;;;;;;;1.37;90.54;98642.34;213466;1295;139293;-69
2023/01/30 21:12:00;;;;;;;8.30;6.90;;;;;;;1.42;90.88;98648.16;212797;1285;160993;-70
2023/01/30 21:17:05;;;;;;;7.20;4.30;;;;;;;1.44;90.69;98656.93;211365;1287;140917;-71
2023/01/30 21:22:09;;;;;;;9.30;4.00;;;;;;;1.45;90.55;98658.75;210375;1286;139653;-71
2023/01/30 21:27:13;;;;;;;11.40;6.90;;;;;;;1.46;90.56;98660.69;210541;1285;140208;-71
2023/01/30 21:32:17;;;;;;;10.30;5.50;;;;;;;1.47;90.57;98662.19;210471;1287;142389;-68
2023/01/30 21:48:08;;;;;;;8.60;6.20;;;;;;;1.50;90.80;98693.30;210552;1288;142046;-68
2023/01/30 21:53:13;;;;;;;8.70;4.00;;;;;;;1.50;91.10;98691.92;211589;1278;141764;-69
2023/01/30 21:58:19;;;;;;;5.90;3.80;;;;;;;1.52;90.98;98697.91;210650;1286;139631;-66
2023/01/30 22:03:27;;;;;;;9.80;4.80;;;;;;;1.54;90.70;98699.59;210861;1287;139501;-66
2023/01/30 22:08:31;;;;;;;7.30;3.90;;;;;;;1.55;90.83;98700.39;211477;1285;139527;-67
2023/01/30 22:13:37;;;;;;;5.50;4.10;;;;;;;1.55;90.85;98704.67;211319;1284;139327;-66
2023/01/30 22:18:45;;;;;;;6.20;3.40;;;;;;;1.53;90.79;98716.52;212322;1292;139793;-67
2023/01/30 22:23:51;;;;;;;9.90;4.70;;;;;;;1.51;91.16;98719.00;211284;1284;140297;-66
2023/01/30 22:28:57;;;;;;;8.10;3.70;;;;;;;1.51;90.83;98730.56;212199;1288;140091;-66
2023/01/30 22:34:03;;;;;;;12.10;4.30;;;;;;;1.54;90.85;98738.27;212044;1285;140818;-63
2023/01/30 22:39:07;;;;;;;5.30;3.00;;;;;;;1.54;90.91;98739.45;211021;1287;140421;-67
2023/01/30 22:44:11;;;;;;;12.60;4.60;;;;;;;1.54;90.87;98744.50;211472;1288;139870;-66
2023/01/30 22:49:15;;;;;;;7.30;3.30;;;;;;;1.55;90.80;98752.59;212876;1278;139978;-66
2023/01/30 22:54:20;;;;;;;5.10;1.70;;;;;;;1.57;90.94;98755.02;213782;1295;140350;-64
2023/01/30 22:59:28;;;;;;;5.40;2.90;;;;;;;1.58;91.02;98760.28;213720;1293;140843;-66
2023/01/30 23:04:32;;;;;;;6.70;3.30;;;;;;;1.59;90.76;98766.10;212804;1287;140002;-65
2023/01/30 23:09:36;;;;;;;9.30;4.80;;;;;;;1.60;90.42;98767.23;211811;1281;141716;-66
2023/01/30 23:14:41;;;;;;;4.00;2.10;;;;;;;1.62;90.81;98769.54;210701;1292;140151;-67
2023/01/30 23:19:45;;;;;;;5.00;4.50;;;;;;;1.64;90.68;98781.42;213717;1285;140032;-67
2023/01/30 23:24:49;;;;;;;9.90;4.30;;;;;;;1.65;90.49;98788.95;210759;1278;139193;-67
2023/01/30 23:29:53;;;;;;;6.80;4.00;;;;;;;1.65;90.35;98790.69;211579;1295;142100;-68
2023/01/30 23:34:58;;;;;;;7.80;4.50;;;;;;;1.64;90.75;98788.09;210729;1284;139241;-64
2023/01/30 23:40:01;;;;;;;7.40;3.80;;;;;;;1.61;90.72;98788.58;210923;1285;139560;-64
2023/01/30 23:45:06;;;;;;;8.30;4.50;;;;;;;1.60;90.47;98793.98;211546;1291;140022;-65
2023/01/30 23:50:11;;;;;;;7.70;3.70;;;;;;;1.59;90.85;98796.23;212038;1285;139300;-65